Time;durP1;ratioP1;P1;durP2;ratioP2;P2;SDS_P1;SDS_P2;PMS_P1;PMS_P2;Temp;Humidity;BMP_temperature;BMP_pressure;BME280_temperature;BME280_humidity;BME280_pressure;Samples;Min_cycle;Max_cycle;Signal;HPM_P1;HPM_P2
2023/10/09 00:01:27;;;;;;;13.15;8.18;;;;;;;16.85;47.29;101676.72;5036305;28;20405;-84
2023/10/09 00:03:56;;;;;;;10.90;8.15;;;;;;;16.84;47.35;101672.22;5032315;28;20141;-83
2023/10/09 00:06:37;;;;;;;13.88;8.80;;;;;;;16.87;47.51;101673.81;5058671;28;20077;-85
2023/10/09 00:09:19;;;;;;;13.27;8.18;;;;;;;16.83;47.00;101678.75;5034206;28;20090;-83
2023/10/09 00:11:48;;;;;;;11.40;7.45;;;;;;;16.81;46.91;101677.22;5033294;28;20048;-84
2023/10/09 00:14:18;;;;;;;13.02;8.13;;;;;;;16.81;47.14;101674.44;5034775;28;20111;-85
2023/10/09 00:16:48;;;;;;;12.48;8.13;;;;;;;16.80;46.97;101675.47;5035873;28;20807;-84
2023/10/09 00:19:20;;;;;;;14.27;8.05;;;;;;;16.81;47.21;101671.69;5038470;28;20099;-86
2023/10/09 00:21:51;;;;;;;12.35;7.88;;;;;;;16.79;47.04;101668.19;5042874;28;20046;-86
2023/10/09 00:24:23;;;;;;;15.25;8.75;;;;;;;16.78;46.87;101666.44;5040952;28;20142;-85
2023/10/09 00:26:55;;;;;;;;;;;;;;;16.50;48.13;101676.63;5037983;28;20054;-85
2023/10/09 00:29:26;;;;;;;11.63;6.65;;;;;;;16.71;47.31;101668.09;5044437;28;19940;-85
2023/10/09 00:32:03;;;;;;;12.57;7.72;;;;;;;16.73;47.35;101660.53;5036625;28;20450;-85
2023/10/09 00:34:39;;;;;;;15.23;8.05;;;;;;;16.73;46.74;101658.63;5037330;28;20078;-85
2023/10/09 00:37:13;;;;;;;14.88;8.00;;;;;;;16.73;47.10;101653.09;5060992;28;20046;-85
2023/10/09 00:39:44;;;;;;;13.90;8.13;;;;;;;16.69;46.75;101646.13;5034348;28;20048;-85
2023/10/09 00:42:15;;;;;;;13.80;8.23;;;;;;;16.67;47.15;101642.66;5035834;28;20056;-85
2023/10/09 00:44:43;;;;;;;13.20;8.77;;;;;;;16.65;46.90;101650.25;5034790;28;20052;-85
2023/10/09 00:47:22;;;;;;;13.95;8.52;;;;;;;16.63;47.05;101658.69;5037202;28;20493;-83
2023/10/09 00:49:59;;;;;;;14.75;8.13;;;;;;;16.60;46.88;101650.69;5038364;28;20087;-83
2023/10/09 00:52:36;;;;;;;12.35;7.75;;;;;;;16.58;47.11;101647.22;5037913;28;20264;-83
2023/10/09 00:55:13;;;;;;;10.68;7.72;;;;;;;16.54;47.07;101654.09;5039620;28;20412;-84
2023/10/09 00:57:50;;;;;;;11.35;7.15;;;;;;;16.53;47.44;101646.81;5040980;28;20045;-84
2023/10/09 01:00:32;;;;;;;11.57;7.25;;;;;;;16.50;47.13;101638.81;5047600;28;20033;-82
2023/10/09 01:05:56;;;;;;;10.20;6.25;;;;;;;16.46;47.65;101623.59;5048834;28;20450;-83
2023/10/09 01:08:30;;;;;;;13.15;7.40;;;;;;;16.49;47.51;101620.53;5048925;28;20056;-83
2023/10/09 01:11:09;;;;;;;11.65;7.40;;;;;;;16.47;47.14;101619.81;5034717;28;20109;-85
2023/10/09 01:13:41;;;;;;;12.57;7.80;;;;;;;16.48;47.38;101616.03;5034486;28;20053;-83
2023/10/09 01:16:16;;;;;;;11.75;7.50;;;;;;;16.43;47.48;101610.06;5034289;28;20275;-84
2023/10/09 01:18:46;;;;;;;11.73;7.40;;;;;;;16.44;47.37;101611.81;5033328;28;20730;-83
2023/10/09 01:21:14;;;;;;;12.25;7.65;;;;;;;16.42;47.59;101608.34;5033795;28;20147;-82
2023/10/09 01:24:02;;;;;;;12.13;8.25;;;;;;;;;;5041111;28;20068;-83
2023/10/09 01:26:34;;;;;;;11.80;7.32;;;;;;;16.39;47.68;101603.13;5032278;28;20503;-83
2023/10/09 01:29:03;;;;;;;12.48;7.57;;;;;;;16.37;47.32;101602.41;5034268;28;20550;-84
2023/10/09 01:31:37;;;;;;;11.32;7.72;;;;;;;16.37;47.64;101591.38;5034273;28;20836;-84
2023/10/09 01:34:09;;;;;;;13.02;7.90;;;;;;;16.35;47.59;101596.16;5035901;28;20056;-83
2023/10/09 01:36:39;;;;;;;11.45;7.47;;;;;;;16.34;47.64;101594.41;5035041;28;20103;-83
2023/10/09 01:39:21;;;;;;;11.75;7.50;;;;;;;16.36;47.89;101584.09;5031052;28;20164;-83
2023/10/09 01:41:51;;;;;;;10.75;7.20;;;;;;;16.33;48.07;101576.09;5030652;28;20447;-82
2023/10/09 01:44:20;;;;;;;13.82;8.77;;;;;;;16.34;48.12;101577.84;5032362;28;20063;-83
2023/10/09 01:46:52;;;;;;;13.25;7.68;;;;;;;16.36;47.87;101594.28;5031781;28;20073;-83
2023/10/09 01:49:29;;;;;;;10.82;6.80;;;;;;;16.33;48.20;101595.44;5031972;28;20049;-83
2023/10/09 01:52:03;;;;;;;13.40;7.43;;;;;;;16.34;47.96;101593.56;5031536;28;20045;-83
2023/10/09 01:54:36;;;;;;;13.48;8.20;;;;;;;16.35;47.94;101596.16;5031538;28;20072;-83
2023/10/09 01:57:12;;;;;;;12.65;7.10;;;;;;;16.35;47.95;101593.41;5029236;28;20041;-83
2023/10/09 01:59:43;;;;;;;10.85;7.22;;;;;;;16.35;48.03;101603.56;5030938;28;20496;-84
2023/10/09 02:02:25;;;;;;;11.55;7.00;;;;;;;16.34;48.04;101611.00;5032681;28;20313;-83
2023/10/09 02:05:03;;;;;;;11.55;6.70;;;;;;;16.34;48.17;101616.53;5030855;28;20045;-83
2023/10/09 02:07:40;;;;;;;11.40;7.47;;;;;;;16.36;48.38;101608.97;5028934;28;20049;-83
2023/10/09 02:10:21;;;;;;;13.43;8.05;;;;;;;16.39;48.18;101613.31;5030970;28;20055;-83
2023/10/09 02:12:53;;;;;;;11.25;7.72;;;;;;;16.38;48.14;101606.03;5028776;28;20502;-83
2023/10/09 02:15:40;;;;;;;12.90;6.70;;;;;;;16.37;47.93;101607.94;5031324;28;20045;-83
2023/10/09 02:18:18;;;;;;;11.05;6.95;;;;;;;16.38;47.86;101606.91;5030856;28;20118;-83
2023/10/09 02:20:55;;;;;;;9.02;5.95;;;;;;;16.40;47.96;101606.78;5030020;28;20049;-83
2023/10/09 02:23:30;;;;;;;11.20;7.03;;;;;;;16.40;48.11;101604.88;5030421;28;20060;-83
2023/10/09 02:26:02;;;;;;;10.27;6.50;;;;;;;16.44;47.97;101602.66;5031238;28;20049;-83
2023/10/09 02:28:32;;;;;;;9.82;6.60;;;;;;;16.38;48.30;101595.88;5031099;28;20511;-84
2023/10/09 02:31:09;;;;;;;12.15;7.22;;;;;;;16.42;48.00;101600.03;5030574;28;20120;-82
2023/10/09 02:33:39;;;;;;;11.23;6.80;;;;;;;16.43;47.97;101593.50;5030387;28;20115;-84
2023/10/09 02:36:08;;;;;;;10.55;6.50;;;;;;;16.43;47.95;101596.25;5033121;28;20049;-83
2023/10/09 02:38:38;;;;;;;10.65;7.15;;;;;;;16.43;48.23;101589.88;5059043;28;20052;-83
2023/10/09 02:41:22;;;;;;;11.18;6.43;;;;;;;16.44;47.79;101589.72;5037456;28;20467;-84
2023/10/09 02:43:51;;;;;;;11.70;6.80;;;;;;;;;;5037038;28;20049;-84
2023/10/09 02:46:21;;;;;;;10.43;6.75;;;;;;;16.43;48.06;101596.25;5042154;28;20505;-84
2023/10/09 02:48:51;;;;;;;10.32;5.95;;;;;;;16.44;48.04;101598.00;5052430;28;20033;-83
2023/10/09 02:51:32;;;;;;;10.07;6.68;;;;;;;16.44;47.85;101591.59;5056294;28;20041;-82
2023/10/09 02:54:17;;;;;;;12.00;6.75;;;;;;;16.44;48.38;101592.47;5056902;28;20049;-83
2023/10/09 02:56:54;;;;;;;11.25;6.57;;;;;;;16.43;48.05;101596.25;5031854;28;20124;-82
2023/10/09 02:59:23;;;;;;;9.70;6.22;;;;;;;16.44;47.78;101577.78;5032758;28;20141;-83
2023/10/09 03:01:53;;;;;;;9.65;6.35;;;;;;;16.45;47.92;101587.81;5032824;28;20208;-84
2023/10/09 03:04:23;;;;;;;11.87;6.30;;;;;;;16.39;48.22;101586.56;5033127;28;20492;-83
2023/10/09 03:06:53;;;;;;;10.65;6.53;;;;;;;16.44;48.01;101580.56;5031982;28;20098;-84
2023/10/09 03:09:27;;;;;;;9.63;6.47;;;;;;;;;;5031110;28;20045;-83
2023/10/09 03:12:02;;;;;;;10.88;6.60;;;;;;;16.41;48.06;101590.03;5030682;28;20047;-83
2023/10/09 03:14:31;;;;;;;10.48;6.88;;;;;;;16.38;48.20;101582.06;5031113;28;21110;-83
2023/10/09 03:17:00;;;;;;;9.80;6.63;;;;;;;16.37;48.07;101583.06;5031843;28;20125;-83
2023/10/09 03:19:29;;;;;;;11.75;6.55;;;;;;;16.38;48.27;101582.06;5032956;28;20424;-83
2023/10/09 03:21:58;;;;;;;9.93;6.35;;;;;;;16.38;47.96;101567.38;5032604;28;20045;-84
2023/10/09 03:24:27;;;;;;;10.50;6.60;;;;;;;16.37;48.56;101562.88;5032593;28;20057;-83
2023/10/09 03:26:57;;;;;;;11.15;6.68;;;;;;;16.39;48.39;101569.13;5032575;28;20033;-83
2023/10/09 03:29:28;;;;;;;11.63;6.80;;;;;;;16.38;48.43;101565.47;5029500;28;20052;-83
2023/10/09 03:32:00;;;;;;;10.90;6.53;;;;;;;16.37;48.49;101560.09;5033455;28;20048;-83
2023/10/09 03:34:30;;;;;;;8.88;6.07;;;;;;;16.37;48.49;101562.88;5035326;28;20081;-83
2023/10/09 03:37:21;;;;;;;10.50;6.78;;;;;;;16.36;48.37;101567.53;5033734;28;20056;-84
2023/10/09 03:39:53;;;;;;;9.52;6.00;;;;;;;16.34;48.35;101563.16;5035837;28;20045;-83
2023/10/09 03:42:24;;;;;;;10.07;6.22;;;;;;;16.39;48.43;101571.88;5036659;28;20049;-83
2023/10/09 03:44:53;;;;;;;8.93;5.95;;;;;;;16.37;48.52;101560.09;5035435;28;20658;-83
2023/10/09 03:47:24;;;;;;;10.85;7.07;;;;;;;16.35;48.12;101548.34;5034314;28;20076;-84
2023/10/09 03:49:53;;;;;;;10.60;6.90;;;;;;;16.35;48.13;101551.97;5059099;28;20765;-83
2023/10/09 03:52:25;;;;;;;10.93;6.82;;;;;;;16.34;48.38;101550.22;5034231;28;20053;-83
2023/10/09 03:54:54;;;;;;;10.40;6.33;;;;;;;16.32;48.36;101545.91;5034150;28;20045;-84
2023/10/09 03:57:24;;;;;;;10.65;6.38;;;;;;;16.35;48.39;101540.03;5033567;28;20320;-83
2023/10/09 03:59:53;;;;;;;10.77;6.43;;;;;;;16.33;48.42;101542.13;5033775;28;20057;-83
2023/10/09 04:02:22;;;;;;;10.75;5.85;;;;;;;16.33;48.68;101537.44;5041753;28;20042;-84
2023/10/09 04:04:52;;;;;;;9.38;6.00;;;;;;;16.32;48.68;101544.00;5039043;28;20160;-84
2023/10/09 04:07:21;;;;;;;9.88;5.65;;;;;;;16.33;48.39;101547.66;5043718;28;20505;-84
2023/10/09 04:10:02;;;;;;;9.43;6.28;;;;;;;16.33;48.78;101550.41;5042418;28;20893;-84
2023/10/09 04:12:33;;;;;;;10.27;6.32;;;;;;;16.34;48.77;101530.00;5036908;28;21139;-84
2023/10/09 04:15:05;;;;;;;10.25;6.28;;;;;;;16.32;48.52;101534.84;5040356;28;20064;-83
2023/10/09 04:17:33;;;;;;;10.40;6.07;;;;;;;16.33;48.59;101531.91;5040453;28;20077;-83
2023/10/09 04:20:50;;;;;;;10.07;5.95;;;;;;;16.35;48.69;101546.44;5040748;28;20079;-83
2023/10/09 04:23:16;;;;;;;10.25;6.03;;;;;;;16.32;48.97;101537.63;5036703;28;20050;-84
2023/10/09 04:25:50;;;;;;;11.65;6.43;;;;;;;16.33;48.70;101540.19;5062850;28;20092;-84
2023/10/09 04:28:22;;;;;;;11.07;6.22;;;;;;;16.35;48.92;101546.44;5042828;28;20528;-83
2023/10/09 04:30:55;;;;;;;10.68;6.32;;;;;;;16.31;49.06;101533.97;5045198;28;20061;-83
2023/10/09 04:33:40;;;;;;;11.35;6.60;;;;;;;16.35;48.97;101534.53;5059655;28;20124;-83
2023/10/09 04:36:15;;;;;;;8.60;5.60;;;;;;;16.36;48.66;101539.03;5058915;28;20520;-83
2023/10/09 04:38:55;;;;;;;11.10;6.18;;;;;;;16.36;48.89;101541.78;5045081;28;20144;-84
2023/10/09 04:41:33;;;;;;;10.65;6.18;;;;;;;16.35;48.86;101549.19;5034947;28;20102;-84
2023/10/09 04:44:18;;;;;;;8.32;5.72;;;;;;;16.36;48.56;101539.91;5033760;28;20053;-84
2023/10/09 04:47:18;;;;;;;8.63;5.78;;;;;;;16.35;48.99;101534.53;5059364;28;20149;-84
2023/10/09 04:49:52;;;;;;;8.98;5.38;;;;;;;16.31;48.71;101550.56;5053098;28;20055;-85
2023/10/09 04:52:51;;;;;;;9.07;5.57;;;;;;;16.31;49.08;101541.41;5042731;28;20423;-84
2023/10/09 04:55:18;;;;;;;10.27;5.85;;;;;;;16.32;49.04;101545.91;5042266;28;20064;-84
2023/10/09 04:58:00;;;;;;;9.48;6.35;;;;;;;16.32;49.13;101530.19;5039783;28;20048;-84
2023/10/09 05:03:28;;;;;;;7.90;5.57;;;;;;;16.31;49.05;101520.16;5033702;28;20051;-84
2023/10/09 05:05:59;;;;;;;8.57;5.70;;;;;;;16.32;49.00;101519.16;5037845;28;20052;-85
2023/10/09 05:08:32;;;;;;;9.35;5.50;;;;;;;16.32;49.25;101515.50;5038343;28;20041;-84
2023/10/09 05:11:15;;;;;;;11.23;5.82;;;;;;;16.33;49.04;101522.78;5038633;28;20661;-84
2023/10/09 05:13:45;;;;;;;8.50;5.50;;;;;;;16.32;49.18;101521.03;5037990;28;20124;-84
2023/10/09 05:16:18;;;;;;;10.90;6.10;;;;;;;16.35;49.16;101506.91;5040957;28;20053;-84
2023/10/09 05:18:55;;;;;;;7.80;4.95;;;;;;;16.34;49.50;101516.19;5037523;28;20038;-83
2023/10/09 05:21:36;;;;;;;7.97;5.35;;;;;;;16.33;49.35;101506.22;5039515;28;20206;-84
2023/10/09 05:24:19;;;;;;;7.68;5.15;;;;;;;16.34;49.26;101503.25;5035728;28;20049;-85
2023/10/09 05:27:12;;;;;;;9.82;5.47;;;;;;;16.32;49.30;101508.09;5033500;28;20051;-83
2023/10/09 05:29:48;;;;;;;8.98;5.32;;;;;;;16.31;48.90;101514.66;5033968;28;20049;-84
2023/10/09 05:32:27;;;;;;;8.93;5.00;;;;;;;16.34;49.29;101513.44;5035996;28;20124;-83
2023/10/09 05:35:15;;;;;;;9.65;5.32;;;;;;;16.34;49.09;101519.84;5035367;28;20491;-84
2023/10/09 05:37:48;;;;;;;8.48;5.18;;;;;;;16.34;49.11;101528.13;5035030;28;20060;-84
2023/10/09 05:40:30;;;;;;;;;;;;;;;16.07;49.73;101544.72;5035930;28;20053;-84
2023/10/09 05:42:59;;;;;;;9.18;4.85;;;;;;;16.27;49.35;101566.56;5033584;28;20056;-84
2023/10/09 05:46:07;;;;;;;7.88;4.95;;;;;;;16.35;49.22;101557.50;5061231;28;20323;-85
2023/10/09 06:08:12;;;;;;;9.82;5.10;;;;;;;16.33;49.64;101542.13;5061294;28;20048;-84
2023/10/09 06:10:41;;;;;;;9.05;5.50;;;;;;;16.33;49.67;101539.34;5037268;28;20049;-85
2023/10/09 06:16:09;;;;;;;9.68;5.68;;;;;;;16.32;49.62;101560.59;5051378;28;20057;-83
2023/10/09 06:18:41;;;;;;;6.78;4.70;;;;;;;16.32;49.64;101566.09;5056709;28;20041;-82
2023/10/09 06:24:14;;;;;;;9.27;5.25;;;;;;;16.35;49.28;101590.63;5005157;28;20057;-83
2023/10/09 06:27:11;;;;;;;7.45;5.20;;;;;;;16.34;49.56;101596.31;5033061;28;20045;-85
2023/10/09 06:32:37;;;;;;;8.57;5.20;;;;;;;16.33;49.32;101616.69;5033722;28;20057;-83
2023/10/09 06:35:18;;;;;;;8.45;5.35;;;;;;;16.34;49.59;101611.00;5034484;28;20056;-84
2023/10/09 06:43:29;;;;;;;8.13;5.18;;;;;;;16.37;49.99;101627.28;5036537;28;20063;-83
2023/10/09 06:46:36;;;;;;;8.65;5.55;;;;;;;16.39;49.90;101628.00;5036128;28;20496;-84
2023/10/09 06:48:55;;;;;;;7.07;4.55;;;;;;;16.40;49.86;101634.41;5034974;28;20045;-83
2023/10/09 06:51:42;;;;;;;8.48;5.15;;;;;;;;;;5033424;28;20152;-83
2023/10/09 06:54:15;;;;;;;7.88;4.45;;;;;;;16.44;50.04;101636.69;5031831;28;20061;-83
2023/10/09 06:59:41;;;;;;;6.50;4.25;;;;;;;16.45;50.22;101609.94;5032214;28;20606;-83
2023/10/09 07:02:27;;;;;;;9.43;5.40;;;;;;;16.46;50.36;101603.38;5030374;28;20061;-84
2023/10/09 07:05:10;;;;;;;8.02;4.90;;;;;;;16.48;50.32;101621.56;5056547;28;20053;-84
2023/10/09 07:07:54;;;;;;;8.27;4.80;;;;;;;16.50;50.35;101625.00;5028935;28;20045;-84
2023/10/09 07:10:32;;;;;;;7.57;4.53;;;;;;;16.52;50.50;101620.19;5037045;28;20108;-84
2023/10/09 07:13:01;;;;;;;7.30;4.90;;;;;;;16.55;50.20;101616.28;5035610;28;20135;-84
2023/10/09 07:18:40;;;;;;;8.70;4.72;;;;;;;16.56;50.24;101632.69;5015435;28;20053;-84
2023/10/09 07:21:26;;;;;;;9.30;4.30;;;;;;;16.57;49.73;101623.38;5036115;28;20054;-84
2023/10/09 07:24:03;;;;;;;7.05;4.20;;;;;;;16.60;49.94;101616.66;5036312;28;20164;-85
2023/10/09 07:26:47;;;;;;;7.93;5.00;;;;;;;16.63;50.24;101619.13;5033685;28;20064;-85
2023/10/09 07:29:21;;;;;;;7.25;4.57;;;;;;;16.63;50.29;101617.22;5036600;28;20343;-85
2023/10/09 07:31:57;;;;;;;7.82;4.20;;;;;;;16.68;50.05;101616.75;5035198;28;20148;-85
2023/10/09 07:37:19;;;;;;;6.35;3.83;;;;;;;16.72;50.00;101617.31;5034304;28;20054;-85
2023/10/09 07:39:56;;;;;;;8.13;4.35;;;;;;;16.76;49.85;101622.38;5037548;28;20149;-84
2023/10/09 07:42:43;;;;;;;8.05;4.57;;;;;;;16.81;49.90;101631.09;5038278;28;20054;-85
2023/10/09 07:48:04;;;;;;;6.70;4.25;;;;;;;16.86;49.93;101619.53;5035959;28;20059;-86
2023/10/09 07:50:40;;;;;;;6.85;4.32;;;;;;;16.91;49.71;101626.31;5038009;28;20049;-85
2023/10/09 07:55:58;;;;;;;7.10;4.32;;;;;;;16.93;50.16;101631.69;5064306;28;20049;-86
2023/10/09 07:58:30;;;;;;;6.75;4.45;;;;;;;16.96;49.74;101623.97;5050824;28;20046;-85
2023/10/09 08:01:08;;;;;;;9.55;5.00;;;;;;;16.97;49.68;101603.63;5054141;28;20100;-86
2023/10/09 08:03:39;;;;;;;9.13;4.35;;;;;;;17.01;49.90;101595.88;5055695;28;20064;-85
2023/10/09 08:06:29;;;;;;;7.18;4.40;;;;;;;17.01;49.78;101609.69;5068710;28;20053;-86
2023/10/09 08:14:45;;;;;;;8.75;4.95;;;;;;;17.08;49.50;101598.84;5039630;28;20048;-85
2023/10/09 08:17:15;;;;;;;7.70;4.53;;;;;;;17.05;49.56;101588.13;5035979;28;20041;-85
2023/10/09 08:19:58;;;;;;;8.57;4.38;;;;;;;17.11;49.42;101602.19;5060740;28;20099;-85
2023/10/09 08:22:42;;;;;;;8.43;4.65;;;;;;;17.08;49.52;101594.19;5042872;28;20056;-86
2023/10/09 08:27:58;;;;;;;7.88;4.30;;;;;;;17.13;49.48;101638.88;5042656;28;20088;-86
2023/10/09 08:30:40;;;;;;;8.10;4.70;;;;;;;17.15;49.38;101660.84;5045892;28;20061;-86
2023/10/09 08:36:04;;;;;;;6.85;4.45;;;;;;;17.12;49.48;101684.13;5041681;28;20306;-85
2023/10/09 08:38:36;;;;;;;;;;;;;;;16.87;49.98;101688.50;5040585;28;20049;-85
2023/10/09 08:41:15;;;;;;;6.90;4.00;;;;;;;17.17;49.80;101694.72;5062343;28;19921;-85
2023/10/09 08:43:52;;;;;;;8.20;4.13;;;;;;;17.23;49.73;101697.75;5046349;28;20052;-85
2023/10/09 08:46:26;;;;;;;6.65;4.53;;;;;;;17.24;49.91;101688.41;5034450;28;20041;-85
2023/10/09 08:48:56;;;;;;;7.85;4.47;;;;;;;17.26;49.64;101664.22;5034880;28;20050;-85
2023/10/09 08:51:25;;;;;;;7.88;4.72;;;;;;;17.29;49.79;101654.75;5036239;28;20059;-85
2023/10/09 08:53:54;;;;;;;7.43;4.60;;;;;;;17.32;49.92;101640.56;5037430;28;20049;-84
2023/10/09 08:56:23;;;;;;;9.13;5.18;;;;;;;17.33;49.78;101615.50;5034796;28;20041;-85
2023/10/09 08:58:53;;;;;;;8.77;5.40;;;;;;;17.37;50.08;101592.03;5035340;28;20155;-85
2023/10/09 09:01:24;;;;;;;9.30;5.63;;;;;;;17.39;49.76;101598.28;5033497;28;20072;-85
2023/10/09 09:03:56;;;;;;;8.90;4.97;;;;;;;17.37;49.64;101605.88;5036952;28;20045;-85
2023/10/09 09:06:25;;;;;;;7.35;4.60;;;;;;;17.42;49.60;101619.22;5033356;28;20060;-85
2023/10/09 09:08:59;;;;;;;7.93;4.85;;;;;;;17.46;49.73;101600.41;5034910;28;20048;-85
2023/10/09 09:11:35;;;;;;;12.60;5.53;;;;;;;17.47;49.65;101605.78;5033956;28;20060;-85
2023/10/09 09:14:06;;;;;;;7.25;4.53;;;;;;;17.50;49.44;101593.50;5033896;28;20049;-84
2023/10/09 09:16:36;;;;;;;8.73;4.60;;;;;;;17.51;49.24;101570.34;5035470;28;20045;-85
2023/10/09 09:19:17;;;;;;;7.85;4.45;;;;;;;17.50;49.21;101561.16;5036188;28;20049;-85
2023/10/09 09:21:54;;;;;;;9.20;5.05;;;;;;;17.55;49.10;101555.16;5031992;28;20056;-85
2023/10/09 09:24:33;;;;;;;7.90;5.00;;;;;;;17.53;49.60;101549.78;5037082;28;20087;-86
2023/10/09 09:27:12;;;;;;;7.07;4.72;;;;;;;17.57;49.09;101561.38;5035508;28;20492;-85
2023/10/09 09:29:52;;;;;;;8.60;4.72;;;;;;;17.57;49.78;101553.94;5035675;28;20077;-85
2023/10/09 09:32:35;;;;;;;9.27;5.20;;;;;;;17.61;49.07;101560.91;5036077;28;20140;-86
2023/10/09 09:35:04;;;;;;;7.97;4.60;;;;;;;17.61;49.44;101548.97;5036740;28;20052;-85
2023/10/09 09:37:50;;;;;;;7.32;4.95;;;;;;;17.64;49.65;101563.34;5038298;28;20049;-85
2023/10/09 09:40:29;;;;;;;7.70;4.43;;;;;;;17.68;49.96;101572.19;5049240;28;20064;-85
2023/10/09 09:43:06;;;;;;;7.53;3.92;;;;;;;17.73;49.72;101578.94;5053101;28;20572;-85
2023/10/09 09:45:35;;;;;;;8.80;4.38;;;;;;;17.80;49.75;101587.53;5057036;28;20061;-85
2023/10/09 10:04:35;;;;;;;6.85;3.65;;;;;;;18.10;49.00;101586.97;4947102;28;20054;-85
2023/10/09 10:12:04;;;;;;;6.38;3.58;;;;;;;18.18;48.81;101593.59;4983933;28;20145;-86
2023/10/09 10:24:09;;;;;;;6.93;3.72;;;;;;;18.23;48.15;101588.41;4941455;28;20055;-86
2023/10/09 10:26:41;;;;;;;7.57;4.18;;;;;;;18.34;48.53;101586.22;5026377;28;20057;-85
2023/10/09 10:29:34;;;;;;;8.20;3.92;;;;;;;18.43;47.84;101587.09;5031110;28;20053;-85
2023/10/09 10:32:08;;;;;;;6.63;3.65;;;;;;;18.43;48.35;101587.97;5033506;28;20531;-85
2023/10/09 10:38:32;;;;;;;8.73;3.85;;;;;;;18.52;47.41;101606.41;5013714;28;20126;-86
2023/10/09 10:41:22;;;;;;;6.22;3.75;;;;;;;18.57;47.44;101607.78;5031454;28;20132;-85
2023/10/09 10:44:45;;;;;;;8.45;4.22;;;;;;;18.62;47.39;101606.28;5030583;28;20115;-84
2023/10/09 10:52:01;;;;;;;7.90;4.03;;;;;;;18.65;47.50;101624.44;4985882;28;20144;-85
2023/10/09 10:58:00;;;;;;;8.00;4.43;;;;;;;18.75;47.34;101626.03;5066445;27;20402;-76
2023/10/09 11:03:23;;;;;;;9.07;4.63;;;;;;;18.83;47.15;101627.97;5061656;28;20102;-76
2023/10/09 11:05:52;;;;;;;8.00;4.30;;;;;;;18.83;47.67;101623.28;5063634;28;20044;-76
2023/10/09 11:08:30;;;;;;;9.35;4.18;;;;;;;18.92;46.98;101626.09;5060981;28;20094;-76
2023/10/09 11:11:15;;;;;;;6.40;3.72;;;;;;;18.93;46.95;101617.59;5061919;28;20052;-76
2023/10/09 11:13:57;;;;;;;6.90;4.10;;;;;;;18.96;47.31;101614.50;5062212;28;20066;-76
2023/10/09 11:16:42;;;;;;;6.10;4.20;;;;;;;18.97;47.08;101612.56;5061262;28;20667;-77
2023/10/09 11:19:28;;;;;;;8.57;4.60;;;;;;;19.03;47.25;101609.13;5061855;28;20139;-77
2023/10/09 11:27:50;;;;;;;6.10;4.15;;;;;;;19.13;46.53;101607.06;5015582;28;20053;-76
2023/10/09 11:30:32;;;;;;;7.47;4.70;;;;;;;19.17;46.21;101611.19;5022142;28;20053;-76
2023/10/09 11:33:07;;;;;;;9.07;4.72;;;;;;;19.20;45.72;101613.66;5020170;28;20485;-76
2023/10/09 11:35:34;;;;;;;9.60;4.93;;;;;;;19.22;46.18;101614.34;5022753;28;20091;-76
2023/10/09 11:38:20;;;;;;;9.70;4.95;;;;;;;19.26;45.95;101604.66;5019340;28;20115;-76
2023/10/09 11:41:06;;;;;;;6.80;4.57;;;;;;;19.29;45.66;101612.66;5022018;28;20052;-75
2023/10/09 11:43:54;;;;;;;7.72;4.95;;;;;;;19.32;45.16;101612.28;5020521;28;20037;-76
2023/10/09 11:49:26;;;;;;;7.15;4.90;;;;;;;19.37;45.65;101598.75;5009542;28;20057;-76
2023/10/09 11:54:56;;;;;;;7.32;4.43;;;;;;;19.42;45.20;101603.78;4979333;28;20050;-76
2023/10/09 11:57:31;;;;;;;7.72;4.30;;;;;;;19.47;45.16;101599.41;4988245;28;20046;-75
2023/10/09 12:00:00;;;;;;;6.80;4.22;;;;;;;19.47;45.01;101599.41;5012341;28;20080;-76
2023/10/09 12:02:31;;;;;;;7.85;4.82;;;;;;;19.50;45.26;101601.00;5020238;28;20800;-76
2023/10/09 12:04:59;;;;;;;8.50;4.40;;;;;;;19.52;44.92;101599.78;5030455;28;20048;-76
2023/10/09 12:07:27;;;;;;;7.05;4.03;;;;;;;19.54;45.07;101600.47;5020717;28;20085;-76
2023/10/09 12:09:57;;;;;;;7.55;4.18;;;;;;;19.57;45.27;101599.25;5020787;28;20053;-76
2023/10/09 12:12:26;;;;;;;7.68;4.28;;;;;;;19.61;45.03;101601.50;5020566;28;20049;-76
2023/10/09 12:14:55;;;;;;;7.38;4.40;;;;;;;19.63;44.54;101604.97;5019141;28;20049;-76
2023/10/09 12:17:25;;;;;;;7.88;4.40;;;;;;;19.67;44.61;101587.94;5018158;28;20132;-76
2023/10/09 12:19:56;;;;;;;8.97;4.67;;;;;;;19.67;44.75;101591.59;5022772;28;20137;-76
2023/10/09 12:22:27;;;;;;;6.75;4.55;;;;;;;19.71;44.50;101579.09;5019307;28;20304;-76
2023/10/09 12:24:56;;;;;;;7.53;4.18;;;;;;;19.75;44.77;101580.47;5020933;28;20050;-76
2023/10/09 12:27:28;;;;;;;7.05;4.13;;;;;;;19.79;44.70;101576.28;5019070;28;20532;-76
2023/10/09 12:29:58;;;;;;;7.50;4.18;;;;;;;19.78;44.45;101585.69;5020264;28;21140;-76
2023/10/09 12:32:26;;;;;;;6.10;4.20;;;;;;;19.82;44.39;101581.50;5019669;28;20192;-76
2023/10/09 12:34:56;;;;;;;8.35;4.30;;;;;;;19.84;44.60;101582.19;5014801;28;20072;-76
2023/10/09 12:37:24;;;;;;;6.55;3.88;;;;;;;19.86;44.25;101570.91;5008062;28;20577;-76
2023/10/09 12:39:55;;;;;;;6.30;4.03;;;;;;;19.88;44.18;101568.78;5005893;28;20046;-76
2023/10/09 12:42:23;;;;;;;7.67;3.80;;;;;;;19.89;44.01;101564.97;5003587;28;20060;-76
2023/10/09 12:44:56;;;;;;;6.78;3.88;;;;;;;19.94;43.90;101570.91;5005285;28;21575;-76
2023/10/09 12:47:26;;;;;;;7.05;4.30;;;;;;;19.92;43.99;101557.19;5004682;28;20053;-76
2023/10/09 12:49:54;;;;;;;5.60;3.75;;;;;;;19.95;43.82;101567.09;5006536;28;20052;-76
2023/10/09 12:52:29;;;;;;;6.18;3.65;;;;;;;19.96;43.90;101577.13;5005414;28;20053;-76
2023/10/09 12:54:57;;;;;;;6.75;4.07;;;;;;;19.96;43.75;101580.78;5006691;28;20659;-76
2023/10/09 12:57:26;;;;;;;6.80;4.43;;;;;;;19.97;43.94;101574.19;5004266;28;20833;-76
2023/10/09 12:59:55;;;;;;;6.97;4.47;;;;;;;20.01;43.60;101566.38;5006891;28;20088;-76
2023/10/09 13:02:29;;;;;;;6.55;3.67;;;;;;;20.00;44.02;101573.84;5002028;28;20057;-76
2023/10/09 13:04:59;;;;;;;9.80;4.28;;;;;;;20.02;43.63;101579.22;5003365;28;20053;-76
2023/10/09 13:07:28;;;;;;;7.10;4.38;;;;;;;20.01;43.93;101581.13;5005254;28;20136;-75
2023/10/09 13:10:09;;;;;;;8.13;4.07;;;;;;;20.04;43.58;101579.03;5007141;28;20049;-76
2023/10/09 13:12:40;;;;;;;7.25;4.13;;;;;;;20.04;43.95;101587.38;5003951;28;20046;-76
2023/10/09 13:15:11;;;;;;;6.30;3.97;;;;;;;20.05;43.57;101592.72;5005316;28;20577;-76
2023/10/09 13:17:39;;;;;;;6.32;3.83;;;;;;;20.06;43.79;101601.94;5003230;28;20073;-76
2023/10/09 13:20:12;;;;;;;7.10;3.92;;;;;;;20.06;43.69;101594.47;5007525;28;20041;-76
2023/10/09 13:22:42;;;;;;;6.53;3.78;;;;;;;20.07;43.48;101600.91;5006067;28;20512;-74
2023/10/09 13:25:16;;;;;;;9.57;4.78;;;;;;;20.08;43.32;101595.16;5006074;28;20115;-75
2023/10/09 13:28:03;;;;;;;7.10;4.65;;;;;;;20.06;43.03;101597.25;5023610;28;20056;-75
2023/10/09 13:30:39;;;;;;;8.00;4.47;;;;;;;20.08;43.27;101595.16;5003180;28;20045;-75
2023/10/09 13:33:16;;;;;;;7.70;4.72;;;;;;;20.06;42.85;101588.91;4995047;28;20547;-75
2023/10/09 13:35:50;;;;;;;6.95;3.85;;;;;;;20.06;42.97;101585.28;5005137;28;20107;-75
2023/10/09 13:38:19;;;;;;;6.95;4.20;;;;;;;20.07;43.05;101582.31;5013440;28;20057;-75
2023/10/09 13:40:48;;;;;;;7.72;4.05;;;;;;;20.06;43.17;101586.13;5003790;28;20397;-75
2023/10/09 13:43:17;;;;;;;6.72;4.18;;;;;;;20.07;43.12;101585.09;5005183;28;20064;-75
2023/10/09 13:45:49;;;;;;;7.47;4.15;;;;;;;20.09;43.15;101576.59;5000330;28;20057;-75
2023/10/09 13:48:20;;;;;;;7.20;4.18;;;;;;;20.07;42.96;101581.44;5003570;28;20080;-75
2023/10/09 13:50:49;;;;;;;7.95;4.78;;;;;;;20.08;43.26;101580.41;5002994;28;20053;-75
2023/10/09 13:53:17;;;;;;;7.32;4.13;;;;;;;20.08;43.02;101572.06;5005004;28;20567;-75
2023/10/09 13:55:47;;;;;;;7.35;4.30;;;;;;;20.07;42.93;101579.53;4995291;28;20045;-75
2023/10/09 13:58:20;;;;;;;8.02;4.43;;;;;;;20.08;43.15;101575.72;5002345;28;20054;-75
2023/10/09 14:00:53;;;;;;;7.32;4.38;;;;;;;20.09;42.93;101577.47;5016618;28;20041;-75
2023/10/09 14:03:23;;;;;;;8.00;4.35;;;;;;;20.05;43.15;101570.50;5003853;28;20046;-75